Have a Safe July 4th! 

Flight Track Log - Related Links

Times and Time Zones

All times are in EST time to prevent confusion due to time zone crossing. See the N700MX flight status page for this flight to view local times or setup timezone preferences in your user account.

Time Position Orientation Groundspeed Altitude Reporting Facility
EST Latitude Longitude Course Direction KTS MPH feet Rate Location/Type
Sun 07:18:10 PM 34.2769 -119.0200 57° Northeast 162 186 4,700  Level Los Angeles Center
Sun 07:19:12 PM 34.2950 -118.9717 66° East 160 184 6,000 1,200 Climbing Los Angeles Center
Sun 07:20:15 PM 34.3164 -118.9178 64° Northeast 171 197 7,200 1,200 Climbing Los Angeles Center
Sun 07:21:17 PM 34.3392 -118.8550 66° East 169 194 8,500 1,113 Climbing Los Angeles Center
Sun 07:22:19 PM 34.3611 -118.7983 65° Northeast 182 209 9,500 1,113 Climbing Los Angeles Center
Sun 07:23:00 PM 34.4880 -118.5894 57° Northeast  Level Estimated
Sun 07:23:21 PM 34.3828 -118.7408 65° Northeast 187 215 10,800  Level Los Angeles Center
Sun 07:24:23 PM 34.4053 -118.6789 66° East 191 220 11,900 1,065 Climbing Los Angeles Center
Sun 07:25:25 PM 34.4258 -118.6231 66° East 191 220 13,000 1,113 Climbing Los Angeles Center
Sun 07:26:27 PM 34.4475 -118.5647 66° East 190 219 14,200 1,161 Climbing Los Angeles Center
Sun 07:27:29 PM 34.4725 -118.4969 66° East 186 214 15,400 1,016 Climbing Los Angeles Center
Sun 07:28:31 PM 34.4942 -118.4389 66° East 191 220 16,300 823 Climbing Los Angeles Center
Sun 07:29:33 PM 34.5153 -118.3767 68° East 199 229 17,100 581 Climbing Los Angeles Center
Sun 07:30:35 PM 34.5331 -118.3069 73° East 214 246 17,500 192 Climbing Los Angeles Center
Sun 07:31:38 PM 34.5531 -118.2267 73° East 244 281 17,500  Level Los Angeles Center
Sun 07:32:40 PM 34.5767 -118.1344 73° East 259 298 17,500  Level Los Angeles Center
Sun 07:33:42 PM 34.5983 -118.0519 72° East 258 297 17,500  Level Los Angeles Center
Sun 07:34:44 PM 34.6192 -117.9697 73° East 256 295 17,500  Level Los Angeles Center
Sun 07:35:46 PM 34.6400 -117.8875 73° East 258 297 17,500  Level Los Angeles Center
Sun 07:36:48 PM 34.6647 -117.7881 73° East 257 296 17,500  Level Los Angeles Center
Sun 07:37:50 PM 34.6858 -117.7058 73° East 256 295 17,500  Level Los Angeles Center
Sun 07:38:52 PM 34.7067 -117.6225 73° East 259 298 17,500  Level Los Angeles Center
Sun 07:39:54 PM 34.7272 -117.5397 73° East 259 298 17,500  Level Los Angeles Center
Sun 07:40:56 PM 34.7472 -117.4572 74° East 257 296 17,500  Level Los Angeles Center
Sun 07:41:58 PM 34.7722 -117.3583 73° East 257 296 17,500  Level Los Angeles Center
Sun 07:43:01 PM 34.7928 -117.2758 73° East 257 296 17,500  Level Los Angeles Center
Sun 07:44:03 PM 34.8133 -117.1925 73° East 257 296 17,500  Level Los Angeles Center
Sun 07:45:05 PM 34.8336 -117.1086 74° East 259 298 17,500  Level Los Angeles Center
Sun 07:46:07 PM 34.8539 -117.0253 73° East 259 298 17,500  Level Los Angeles Center
Sun 07:47:09 PM 34.8789 -116.9242 73° East 260 299 17,500  Level Los Angeles Center
Sun 07:48:11 PM 34.8997 -116.8408 73° East 259 298 17,500  Level Los Angeles Center
Sun 07:49:13 PM 34.9194 -116.7575 74° East 259 298 17,500  Level Los Angeles Center
Sun 07:50:15 PM 34.9392 -116.6725 74° East 259 298 17,500  Level Los Angeles Center
Sun 07:51:17 PM 34.9592 -116.5889 74° East 259 298 17,500  Level Los Angeles Center
Sun 07:52:19 PM 35.0031 -116.5228 51° Northeast 261 300 17,500  Level Los Angeles Center
Sun 07:53:21 PM 35.0567 -116.4419 51° Northeast 257 296 17,500  Level Los Angeles Center
Sun 07:54:24 PM 35.1028 -116.3778 49° Northeast 255 293 17,500  Level Los Angeles Center
Sun 07:55:26 PM 35.1467 -116.3136 50° Northeast 252 290 17,500  Level Los Angeles Center
Sun 07:56:28 PM 35.1911 -116.2492 50° Northeast 249 287 17,500  Level Los Angeles Center
Sun 07:57:30 PM 35.2367 -116.1858 49° Northeast 249 287 17,500  Level Los Angeles Center
Sun 07:58:32 PM 35.2903 -116.1086 50° Northeast 248 285 17,500  Level Los Angeles Center
Sun 07:59:34 PM 35.3344 -116.0458 49° Northeast 246 283 17,500  Level Los Angeles Center
Sun 08:00:36 PM 35.3778 -115.9814 50° Northeast 246 283 17,500  Level Los Angeles Center
Sun 08:01:38 PM 35.4228 -115.9183 49° Northeast 246 283 17,500  Level Los Angeles Center
Sun 08:02:21 PM 35.4583 -115.8686 49° Northeast 244 281 17,500  Level Los Angeles Center
Sun 08:02:40 PM 35.4667 -115.8553 52° Northeast 245 282 17,500  Level Los Angeles Center
Sun 08:03:46 PM 35.5200 -115.7831 48° Northeast 247 284 17,500  Level Los Angeles Center
Sun 08:03:55 PM 35.5281 -115.7653 61° Northeast 245 282 17,500  Level Los Angeles Center
Sun 08:04:40 PM 35.5611 -115.7225 46° Northeast 245 282 17,500  Level Los Angeles Center
Sun 08:04:57 PM 35.5731 -115.7011 56° Northeast 247 284 17,500  Level Los Angeles Center
Sun 08:05:59 PM 35.6164 -115.6381 50° Northeast 245 282 17,500  Level Los Angeles Center
Sun 08:06:42 PM 35.6533 -115.5897 47° Northeast 245 282 17,500  Level Los Angeles Center
Sun 08:07:01 PM 35.6606 -115.5744 60° Northeast 245 282 17,500  Level Los Angeles Center
Sun 08:07:43 PM 35.6978 -115.5250 47° Northeast 244 281 17,500  Level Los Angeles Center
Sun 08:08:03 PM 35.7036 -115.5108 63° Northeast 244 281 17,500  Level Los Angeles Center
Sun 08:08:44 PM 35.7400 -115.4611 48° Northeast 246 283 17,500  Level Los Angeles Center
Sun 08:09:05 PM 35.7567 -115.4347 52° Northeast 250 288 17,500  Level Los Angeles Center
Sun 08:09:45 PM 35.7844 -115.3964 48° Northeast 245 282 17,500  Level Los Angeles Center
Sun 08:10:19 PM 35.8006 -115.3708 52° Northeast 246 283 17,500  Level Los Angeles Center
Sun 08:10:45 PM 35.8286 -115.3317 49° Northeast 247 284 17,500  Level Los Angeles Center
Sun 08:11:21 PM 35.8553 -115.2917 51° Northeast 247 284 17,500  Level Los Angeles Center
Sun 08:11:40 PM 35.8700 -115.2731 46° Northeast 247 284 17,500  Level Los Angeles Center
Sun 08:12:23 PM 35.9028 -115.2222 51° Northeast 247 284 17,500  Level Los Angeles Center
Sun 08:12:41 PM 35.9156 -115.2050 48° Northeast 247 284 17,500  Level Los Angeles Center
Sun 08:13:25 PM 35.9469 -115.1581 50° Northeast 246 283 17,500  Level Los Angeles Center
Sun 08:13:48 PM 35.9628 -115.1339 51° Northeast 247 284 17,500  Level Los Angeles Center
Sun 08:14:27 PM 35.9936 -115.0889 50° Northeast 246 283 17,500  Level Los Angeles Center
Sun 08:14:49 PM 36.0089 -115.0681 48° Northeast 247 284 17,500  Level Los Angeles Center
Sun 08:15:29 PM 36.0372 -115.0256 50° Northeast 246 283 17,500  Level Los Angeles Center
Sun 08:15:49 PM 36.0525 -115.0003 53° Northeast 247 284 17,500  Level Los Angeles Center
Sun 08:16:31 PM 36.0844 -114.9544 49° Northeast 249 287 17,500  Level Los Angeles Center
Sun 08:16:50 PM 36.0967 -114.9353 52° Northeast 250 288 17,500  Level Los Angeles Center
Sun 08:17:33 PM 36.1275 -114.8911 49° Northeast 247 284 17,500  Level Los Angeles Center
Sun 08:17:57 PM 36.1475 -114.8622 49° Northeast 250 288 17,500  Level Los Angeles Center
Sun 08:18:35 PM 36.1700 -114.8225 55° Northeast 250 288 17,500  Level Los Angeles Center
Sun 08:18:52 PM 36.1814 -114.8003 58° Northeast 251 289 17,500  Level Los Angeles Center
Sun 08:19:37 PM 36.2081 -114.7511 56° Northeast 250 288 17,500  Level Los Angeles Center
Sun 08:20:51 PM 36.2528 -114.6622 58° Northeast 253 291 17,500  Level Los Angeles Center
Sun 08:21:53 PM 36.2975 -114.5747 58° Northeast 252 290 17,500 -339 Level Los Angeles Center
Sun 08:22:55 PM 36.3353 -114.4978 59° Northeast 258 297 16,800 -677 Descending Los Angeles Center
Sun 08:23:57 PM 36.3778 -114.4183 56° Northeast 271 312 16,100 -726 Descending Los Angeles Center
Sun 08:24:59 PM 36.4186 -114.3372 58° Northeast 276 318 15,300 -726 Descending Los Angeles Center
Sun 08:26:01 PM 36.4608 -114.2539 58° Northeast 282 325 14,600 -683 Descending Los Angeles Center
Sun 08:27:02 PM 36.5039 -114.1706 57° Northeast 285 328 13,900 -683 Descending Los Angeles Center
Sun 08:28:04 PM 36.5456 -114.0833 59° Northeast 289 333 13,200 -774 Descending Los Angeles Center
Sun 08:29:06 PM 36.5958 -113.9847 58° Northeast 285 328 12,300 -774 Descending Los Angeles Center
Sun 08:30:08 PM 36.6358 -113.9050 58° Northeast 276 318 11,600 -677 Descending Los Angeles Center
Sun 08:31:10 PM 36.6756 -113.8253 58° Northeast 273 314 10,900 -677 Descending Los Angeles Center

Login

Don't have an account? Register now (free) for customized features, flight alerts, and more!